sensor_id;sensor_type;location;lat;lon;timestamp;P1;durP1;ratioP1;P2;durP2;ratioP2
7398;SDS011;3740;50.700;7.184;2022-09-16T00:00:58;5.13;;;2.03;;
7398;SDS011;3740;50.700;7.184;2022-09-16T00:03:44;5.17;;;1.90;;
7398;SDS011;3740;50.700;7.184;2022-09-16T00:06:31;4.37;;;1.70;;
7398;SDS011;3740;50.700;7.184;2022-09-16T00:09:17;3.53;;;1.57;;
7398;SDS011;3740;50.700;7.184;2022-09-16T00:12:04;4.10;;;1.93;;
7398;SDS011;3740;50.700;7.184;2022-09-16T00:14:51;5.00;;;1.90;;
7398;SDS011;3740;50.700;7.184;2022-09-16T00:17:38;4.07;;;1.50;;
7398;SDS011;3740;50.700;7.184;2022-09-16T00:20:24;2.90;;;1.70;;
7398;SDS011;3740;50.700;7.184;2022-09-16T00:23:10;4.07;;;1.80;;
7398;SDS011;3740;50.700;7.184;2022-09-16T00:25:56;4.17;;;2.07;;
7398;SDS011;3740;50.700;7.184;2022-09-16T00:28:42;3.67;;;1.83;;
7398;SDS011;3740;50.700;7.184;2022-09-16T00:31:27;3.20;;;1.70;;
7398;SDS011;3740;50.700;7.184;2022-09-16T00:34:13;3.70;;;2.00;;
7398;SDS011;3740;50.700;7.184;2022-09-16T00:36:59;3.20;;;1.80;;
7398;SDS011;3740;50.700;7.184;2022-09-16T00:39:47;5.17;;;2.07;;
7398;SDS011;3740;50.700;7.184;2022-09-16T00:42:40;2.87;;;1.77;;
7398;SDS011;3740;50.700;7.184;2022-09-16T00:45:26;4.90;;;2.20;;
7398;SDS011;3740;50.700;7.184;2022-09-16T00:48:17;3.60;;;1.97;;
7398;SDS011;3740;50.700;7.184;2022-09-16T00:51:07;3.27;;;2.00;;
7398;SDS011;3740;50.700;7.184;2022-09-16T00:53:56;4.77;;;1.90;;
7398;SDS011;3740;50.700;7.184;2022-09-16T00:56:48;4.37;;;2.10;;
7398;SDS011;3740;50.700;7.184;2022-09-16T00:59:39;2.40;;;1.63;;
7398;SDS011;3740;50.700;7.184;2022-09-16T01:02:30;4.77;;;1.70;;
7398;SDS011;3740;50.700;7.184;2022-09-16T01:05:17;2.50;;;1.50;;
7398;SDS011;3740;50.700;7.184;2022-09-16T01:08:06;4.13;;;2.07;;
7398;SDS011;3740;50.700;7.184;2022-09-16T01:10:52;5.77;;;2.27;;
7398;SDS011;3740;50.700;7.184;2022-09-16T01:13:38;4.20;;;1.97;;
7398;SDS011;3740;50.700;7.184;2022-09-16T01:16:28;4.53;;;1.60;;
7398;SDS011;3740;50.700;7.184;2022-09-16T01:22:19;4.40;;;2.13;;
7398;SDS011;3740;50.700;7.184;2022-09-16T01:34:15;2.53;;;1.73;;
7398;SDS011;3740;50.700;7.184;2022-09-16T01:37:28;3.57;;;2.10;;
7398;SDS011;3740;50.700;7.184;2022-09-16T01:43:22;3.30;;;1.70;;
7398;SDS011;3740;50.700;7.184;2022-09-16T01:46:21;3.00;;;1.90;;
7398;SDS011;3740;50.700;7.184;2022-09-16T01:49:19;2.67;;;1.73;;
7398;SDS011;3740;50.700;7.184;2022-09-16T01:55:37;3.17;;;2.17;;
7398;SDS011;3740;50.700;7.184;2022-09-16T01:59:08;2.83;;;1.73;;
7398;SDS011;3740;50.700;7.184;2022-09-16T02:05:18;4.33;;;2.07;;
7398;SDS011;3740;50.700;7.184;2022-09-16T02:08:31;4.57;;;1.83;;
7398;SDS011;3740;50.700;7.184;2022-09-16T02:11:18;2.83;;;1.77;;
7398;SDS011;3740;50.700;7.184;2022-09-16T02:14:07;3.60;;;1.83;;
7398;SDS011;3740;50.700;7.184;2022-09-16T02:17:00;3.57;;;2.13;;
7398;SDS011;3740;50.700;7.184;2022-09-16T02:19:56;4.80;;;2.10;;
7398;SDS011;3740;50.700;7.184;2022-09-16T02:22:48;4.57;;;1.97;;
7398;SDS011;3740;50.700;7.184;2022-09-16T02:25:38;3.30;;;2.07;;
7398;SDS011;3740;50.700;7.184;2022-09-16T02:28:33;2.07;;;1.70;;
7398;SDS011;3740;50.700;7.184;2022-09-16T02:31:25;3.00;;;2.07;;
7398;SDS011;3740;50.700;7.184;2022-09-16T02:34:19;4.63;;;2.10;;
7398;SDS011;3740;50.700;7.184;2022-09-16T02:37:14;4.53;;;2.20;;
7398;SDS011;3740;50.700;7.184;2022-09-16T02:40:15;2.50;;;1.53;;
7398;SDS011;3740;50.700;7.184;2022-09-16T02:43:04;4.47;;;2.23;;
7398;SDS011;3740;50.700;7.184;2022-09-16T02:45:57;4.60;;;2.50;;
7398;SDS011;3740;50.700;7.184;2022-09-16T02:54:49;5.90;;;2.33;;
7398;SDS011;3740;50.700;7.184;2022-09-16T02:57:38;3.97;;;2.17;;
7398;SDS011;3740;50.700;7.184;2022-09-16T03:00:25;4.10;;;2.33;;
7398;SDS011;3740;50.700;7.184;2022-09-16T03:03:15;3.73;;;2.23;;
7398;SDS011;3740;50.700;7.184;2022-09-16T03:08:51;3.47;;;2.07;;
7398;SDS011;3740;50.700;7.184;2022-09-16T03:21:18;4.10;;;2.27;;
7398;SDS011;3740;50.700;7.184;2022-09-16T03:24:36;5.83;;;2.23;;
7398;SDS011;3740;50.700;7.184;2022-09-16T03:27:34;5.17;;;2.03;;
7398;SDS011;3740;50.700;7.184;2022-09-16T03:30:26;3.63;;;2.10;;
7398;SDS011;3740;50.700;7.184;2022-09-16T03:33:21;4.10;;;2.30;;
7398;SDS011;3740;50.700;7.184;2022-09-16T03:36:17;3.87;;;2.20;;
7398;SDS011;3740;50.700;7.184;2022-09-16T03:39:08;4.87;;;2.40;;
7398;SDS011;3740;50.700;7.184;2022-09-16T03:41:58;2.83;;;2.20;;
7398;SDS011;3740;50.700;7.184;2022-09-16T03:44:49;4.60;;;2.43;;
7398;SDS011;3740;50.700;7.184;2022-09-16T03:47:35;5.37;;;2.20;;
7398;SDS011;3740;50.700;7.184;2022-09-16T03:50:21;4.47;;;1.97;;
7398;SDS011;3740;50.700;7.184;2022-09-16T03:53:07;5.27;;;2.63;;
7398;SDS011;3740;50.700;7.184;2022-09-16T03:55:53;3.20;;;2.50;;
7398;SDS011;3740;50.700;7.184;2022-09-16T03:58:39;4.43;;;2.77;;
7398;SDS011;3740;50.700;7.184;2022-09-16T04:01:25;4.40;;;2.53;;
7398;SDS011;3740;50.700;7.184;2022-09-16T04:04:12;5.43;;;2.67;;
7398;SDS011;3740;50.700;7.184;2022-09-16T04:06:58;4.63;;;2.37;;
7398;SDS011;3740;50.700;7.184;2022-09-16T04:09:44;6.67;;;2.70;;
7398;SDS011;3740;50.700;7.184;2022-09-16T04:12:30;6.13;;;3.23;;
7398;SDS011;3740;50.700;7.184;2022-09-16T04:15:16;5.50;;;2.67;;
7398;SDS011;3740;50.700;7.184;2022-09-16T04:18:01;5.23;;;2.50;;
7398;SDS011;3740;50.700;7.184;2022-09-16T04:20:47;3.93;;;2.37;;
7398;SDS011;3740;50.700;7.184;2022-09-16T04:23:33;6.10;;;3.00;;
7398;SDS011;3740;50.700;7.184;2022-09-16T04:26:19;4.80;;;2.50;;
7398;SDS011;3740;50.700;7.184;2022-09-16T04:29:05;6.40;;;2.60;;
7398;SDS011;3740;50.700;7.184;2022-09-16T04:31:51;6.20;;;3.10;;
7398;SDS011;3740;50.700;7.184;2022-09-16T04:34:38;5.07;;;2.70;;
7398;SDS011;3740;50.700;7.184;2022-09-16T04:37:24;5.73;;;2.80;;
7398;SDS011;3740;50.700;7.184;2022-09-16T04:40:09;5.00;;;2.33;;
7398;SDS011;3740;50.700;7.184;2022-09-16T04:42:55;5.07;;;2.80;;
7398;SDS011;3740;50.700;7.184;2022-09-16T04:45:41;5.30;;;2.63;;
7398;SDS011;3740;50.700;7.184;2022-09-16T04:48:27;5.03;;;2.50;;
7398;SDS011;3740;50.700;7.184;2022-09-16T04:51:14;3.97;;;2.20;;
7398;SDS011;3740;50.700;7.184;2022-09-16T04:54:01;5.53;;;2.47;;
7398;SDS011;3740;50.700;7.184;2022-09-16T04:56:47;5.30;;;2.70;;
7398;SDS011;3740;50.700;7.184;2022-09-16T04:59:33;4.50;;;2.30;;
7398;SDS011;3740;50.700;7.184;2022-09-16T05:02:19;6.73;;;2.77;;
7398;SDS011;3740;50.700;7.184;2022-09-16T05:05:05;4.30;;;2.30;;
7398;SDS011;3740;50.700;7.184;2022-09-16T05:07:51;3.37;;;2.50;;
7398;SDS011;3740;50.700;7.184;2022-09-16T05:10:37;7.30;;;2.97;;
7398;SDS011;3740;50.700;7.184;2022-09-16T05:13:23;6.23;;;2.70;;
7398;SDS011;3740;50.700;7.184;2022-09-16T05:16:19;2.50;;;2.13;;
7398;SDS011;3740;50.700;7.184;2022-09-16T05:19:06;4.87;;;2.40;;
7398;SDS011;3740;50.700;7.184;2022-09-16T05:21:53;4.47;;;2.43;;
7398;SDS011;3740;50.700;7.184;2022-09-16T05:24:39;6.97;;;2.80;;
7398;SDS011;3740;50.700;7.184;2022-09-16T05:27:25;5.33;;;2.43;;
7398;SDS011;3740;50.700;7.184;2022-09-16T05:30:14;6.83;;;2.57;;
7398;SDS011;3740;50.700;7.184;2022-09-16T05:33:01;5.90;;;2.60;;
7398;SDS011;3740;50.700;7.184;2022-09-16T05:35:47;4.33;;;2.50;;
7398;SDS011;3740;50.700;7.184;2022-09-16T05:38:33;4.13;;;2.37;;
7398;SDS011;3740;50.700;7.184;2022-09-16T05:41:19;4.63;;;2.50;;
7398;SDS011;3740;50.700;7.184;2022-09-16T05:44:05;4.83;;;2.20;;
7398;SDS011;3740;50.700;7.184;2022-09-16T05:46:51;5.07;;;2.47;;
7398;SDS011;3740;50.700;7.184;2022-09-16T05:49:37;5.97;;;2.40;;
7398;SDS011;3740;50.700;7.184;2022-09-16T05:52:23;4.67;;;2.10;;
7398;SDS011;3740;50.700;7.184;2022-09-16T05:55:09;5.00;;;2.33;;
7398;SDS011;3740;50.700;7.184;2022-09-16T05:57:55;7.00;;;2.40;;
7398;SDS011;3740;50.700;7.184;2022-09-16T06:00:41;8.83;;;2.93;;
7398;SDS011;3740;50.700;7.184;2022-09-16T06:03:27;3.80;;;2.20;;
7398;SDS011;3740;50.700;7.184;2022-09-16T06:06:24;3.70;;;2.50;;
7398;SDS011;3740;50.700;7.184;2022-09-16T06:09:12;4.80;;;2.20;;
7398;SDS011;3740;50.700;7.184;2022-09-16T06:11:58;4.13;;;2.40;;
7398;SDS011;3740;50.700;7.184;2022-09-16T06:14:43;5.03;;;2.47;;
7398;SDS011;3740;50.700;7.184;2022-09-16T06:17:29;5.67;;;2.10;;
7398;SDS011;3740;50.700;7.184;2022-09-16T06:20:15;6.33;;;2.40;;
7398;SDS011;3740;50.700;7.184;2022-09-16T06:23:01;4.87;;;2.73;;
7398;SDS011;3740;50.700;7.184;2022-09-16T06:25:47;3.87;;;2.30;;
7398;SDS011;3740;50.700;7.184;2022-09-16T06:28:34;5.47;;;2.60;;
7398;SDS011;3740;50.700;7.184;2022-09-16T06:31:21;3.83;;;2.10;;
7398;SDS011;3740;50.700;7.184;2022-09-16T06:34:15;4.57;;;2.10;;
7398;SDS011;3740;50.700;7.184;2022-09-16T06:37:05;5.57;;;2.40;;
7398;SDS011;3740;50.700;7.184;2022-09-16T06:39:51;3.63;;;2.20;;
7398;SDS011;3740;50.700;7.184;2022-09-16T06:42:36;7.70;;;2.40;;
7398;SDS011;3740;50.700;7.184;2022-09-16T06:45:22;5.03;;;2.60;;
7398;SDS011;3740;50.700;7.184;2022-09-16T06:48:09;4.00;;;1.93;;
7398;SDS011;3740;50.700;7.184;2022-09-16T06:50:58;4.53;;;2.03;;
7398;SDS011;3740;50.700;7.184;2022-09-16T06:53:45;3.47;;;2.20;;
7398;SDS011;3740;50.700;7.184;2022-09-16T06:56:32;4.40;;;2.13;;
7398;SDS011;3740;50.700;7.184;2022-09-16T06:59:20;4.50;;;2.10;;
7398;SDS011;3740;50.700;7.184;2022-09-16T07:02:07;6.10;;;2.10;;
7398;SDS011;3740;50.700;7.184;2022-09-16T07:04:54;5.00;;;2.00;;
7398;SDS011;3740;50.700;7.184;2022-09-16T07:07:40;5.53;;;2.20;;
7398;SDS011;3740;50.700;7.184;2022-09-16T07:10:26;3.50;;;2.00;;
7398;SDS011;3740;50.700;7.184;2022-09-16T07:13:12;3.77;;;1.97;;
7398;SDS011;3740;50.700;7.184;2022-09-16T07:16:01;3.90;;;1.90;;
7398;SDS011;3740;50.700;7.184;2022-09-16T07:18:52;5.67;;;1.93;;
7398;SDS011;3740;50.700;7.184;2022-09-16T07:21:39;4.80;;;2.10;;
7398;SDS011;3740;50.700;7.184;2022-09-16T07:24:25;4.00;;;2.40;;
7398;SDS011;3740;50.700;7.184;2022-09-16T07:27:11;3.37;;;2.07;;
7398;SDS011;3740;50.700;7.184;2022-09-16T07:29:57;4.93;;;2.13;;
7398;SDS011;3740;50.700;7.184;2022-09-16T07:32:43;5.23;;;2.20;;
7398;SDS011;3740;50.700;7.184;2022-09-16T07:35:29;5.03;;;2.27;;
7398;SDS011;3740;50.700;7.184;2022-09-16T07:38:15;3.40;;;2.17;;
7398;SDS011;3740;50.700;7.184;2022-09-16T07:43:57;5.17;;;2.20;;
7398;SDS011;3740;50.700;7.184;2022-09-16T07:46:44;3.63;;;2.00;;
7398;SDS011;3740;50.700;7.184;2022-09-16T07:49:30;4.43;;;2.30;;
7398;SDS011;3740;50.700;7.184;2022-09-16T07:52:16;5.17;;;2.47;;
7398;SDS011;3740;50.700;7.184;2022-09-16T07:55:02;5.70;;;2.10;;
7398;SDS011;3740;50.700;7.184;2022-09-16T07:57:48;3.80;;;1.93;;
7398;SDS011;3740;50.700;7.184;2022-09-16T08:00:34;3.23;;;2.10;;
7398;SDS011;3740;50.700;7.184;2022-09-16T08:03:20;4.20;;;2.03;;
7398;SDS011;3740;50.700;7.184;2022-09-16T08:06:07;5.47;;;2.43;;
7398;SDS011;3740;50.700;7.184;2022-09-16T08:08:58;5.17;;;2.03;;
7398;SDS011;3740;50.700;7.184;2022-09-16T08:11:45;4.20;;;2.30;;
7398;SDS011;3740;50.700;7.184;2022-09-16T08:14:31;3.23;;;1.80;;
7398;SDS011;3740;50.700;7.184;2022-09-16T08:17:17;3.03;;;2.00;;
7398;SDS011;3740;50.700;7.184;2022-09-16T08:20:03;4.57;;;2.07;;
7398;SDS011;3740;50.700;7.184;2022-09-16T08:22:51;2.90;;;1.83;;
7398;SDS011;3740;50.700;7.184;2022-09-16T08:25:37;3.40;;;1.80;;
7398;SDS011;3740;50.700;7.184;2022-09-16T08:28:23;2.67;;;1.43;;
7398;SDS011;3740;50.700;7.184;2022-09-16T08:31:10;2.77;;;1.70;;
7398;SDS011;3740;50.700;7.184;2022-09-16T08:33:57;4.10;;;1.87;;
7398;SDS011;3740;50.700;7.184;2022-09-16T08:36:43;2.97;;;1.60;;
7398;SDS011;3740;50.700;7.184;2022-09-16T08:39:29;4.17;;;2.00;;
7398;SDS011;3740;50.700;7.184;2022-09-16T08:42:28;5.57;;;1.83;;
7398;SDS011;3740;50.700;7.184;2022-09-16T08:45:40;3.87;;;1.40;;
7398;SDS011;3740;50.700;7.184;2022-09-16T08:48:48;6.33;;;2.60;;
7398;SDS011;3740;50.700;7.184;2022-09-16T08:51:42;3.10;;;1.20;;
7398;SDS011;3740;50.700;7.184;2022-09-16T08:54:31;3.17;;;1.50;;
7398;SDS011;3740;50.700;7.184;2022-09-16T08:57:25;3.83;;;1.43;;
7398;SDS011;3740;50.700;7.184;2022-09-16T09:00:13;5.40;;;1.37;;
7398;SDS011;3740;50.700;7.184;2022-09-16T09:03:17;3.23;;;1.60;;
7398;SDS011;3740;50.700;7.184;2022-09-16T09:12:23;2.53;;;1.60;;
7398;SDS011;3740;50.700;7.184;2022-09-16T09:15:32;5.23;;;1.90;;
7398;SDS011;3740;50.700;7.184;2022-09-16T09:30:48;2.77;;;1.20;;
7398;SDS011;3740;50.700;7.184;2022-09-16T09:34:01;3.77;;;1.50;;
7398;SDS011;3740;50.700;7.184;2022-09-16T09:43:39;3.53;;;1.87;;
7398;SDS011;3740;50.700;7.184;2022-09-16T09:46:34;5.43;;;1.50;;
7398;SDS011;3740;50.700;7.184;2022-09-16T09:49:26;2.40;;;1.40;;
7398;SDS011;3740;50.700;7.184;2022-09-16T09:52:22;2.17;;;1.10;;
7398;SDS011;3740;50.700;7.184;2022-09-16T09:55:19;1.33;;;0.93;;
7398;SDS011;3740;50.700;7.184;2022-09-16T10:00:59;2.40;;;1.57;;
7398;SDS011;3740;50.700;7.184;2022-09-16T10:03:46;2.77;;;1.10;;
7398;SDS011;3740;50.700;7.184;2022-09-16T10:06:35;3.08;;;1.50;;
7398;SDS011;3740;50.700;7.184;2022-09-16T10:09:21;3.05;;;1.67;;
7398;SDS011;3740;50.700;7.184;2022-09-16T10:12:07;2.65;;;1.13;;
7398;SDS011;3740;50.700;7.184;2022-09-16T10:14:53;3.80;;;1.25;;
7398;SDS011;3740;50.700;7.184;2022-09-16T10:17:39;2.70;;;1.48;;
7398;SDS011;3740;50.700;7.184;2022-09-16T10:20:34;2.10;;;1.13;;
7398;SDS011;3740;50.700;7.184;2022-09-16T10:23:23;5.05;;;1.60;;
7398;SDS011;3740;50.700;7.184;2022-09-16T10:26:16;2.08;;;1.20;;
7398;SDS011;3740;50.700;7.184;2022-09-16T10:29:16;2.88;;;1.27;;
7398;SDS011;3740;50.700;7.184;2022-09-16T10:32:05;3.28;;;1.38;;
7398;SDS011;3740;50.700;7.184;2022-09-16T10:34:56;3.75;;;1.20;;
7398;SDS011;3740;50.700;7.184;2022-09-16T10:37:49;2.50;;;1.23;;
7398;SDS011;3740;50.700;7.184;2022-09-16T10:40:37;2.67;;;1.10;;
7398;SDS011;3740;50.700;7.184;2022-09-16T10:43:35;3.85;;;1.25;;
7398;SDS011;3740;50.700;7.184;2022-09-16T10:46:23;1.38;;;0.98;;
7398;SDS011;3740;50.700;7.184;2022-09-16T10:49:10;2.88;;;1.30;;
7398;SDS011;3740;50.700;7.184;2022-09-16T10:52:06;3.90;;;1.48;;
7398;SDS011;3740;50.700;7.184;2022-09-16T10:54:53;2.78;;;1.20;;
7398;SDS011;3740;50.700;7.184;2022-09-16T10:57:40;2.47;;;1.23;;
7398;SDS011;3740;50.700;7.184;2022-09-16T11:00:28;3.30;;;1.50;;
7398;SDS011;3740;50.700;7.184;2022-09-16T11:06:31;2.30;;;1.20;;
7398;SDS011;3740;50.700;7.184;2022-09-16T11:09:44;3.92;;;1.50;;
7398;SDS011;3740;50.700;7.184;2022-09-16T11:12:48;3.40;;;1.35;;
7398;SDS011;3740;50.700;7.184;2022-09-16T11:15:51;3.00;;;1.23;;
7398;SDS011;3740;50.700;7.184;2022-09-16T11:18:48;1.95;;;1.20;;
7398;SDS011;3740;50.700;7.184;2022-09-16T11:25:47;1.65;;;1.23;;
7398;SDS011;3740;50.700;7.184;2022-09-16T11:34:30;1.50;;;1.17;;
7398;SDS011;3740;50.700;7.184;2022-09-16T11:37:23;1.58;;;0.82;;
7398;SDS011;3740;50.700;7.184;2022-09-16T11:53:18;2.58;;;1.35;;
7398;SDS011;3740;50.700;7.184;2022-09-16T11:56:31;2.20;;;1.30;;
7398;SDS011;3740;50.700;7.184;2022-09-16T11:59:27;1.88;;;0.75;;
7398;SDS011;3740;50.700;7.184;2022-09-16T12:02:30;2.47;;;1.17;;
7398;SDS011;3740;50.700;7.184;2022-09-16T12:05:38;1.52;;;1.00;;
7398;SDS011;3740;50.700;7.184;2022-09-16T12:08:47;1.52;;;0.82;;
7398;SDS011;3740;50.700;7.184;2022-09-16T12:11:44;2.13;;;1.05;;
7398;SDS011;3740;50.700;7.184;2022-09-16T12:14:36;1.08;;;0.73;;
7398;SDS011;3740;50.700;7.184;2022-09-16T12:17:27;3.00;;;1.00;;
7398;SDS011;3740;50.700;7.184;2022-09-16T12:20:34;3.50;;;1.23;;
7398;SDS011;3740;50.700;7.184;2022-09-16T12:23:26;1.10;;;0.65;;
7398;SDS011;3740;50.700;7.184;2022-09-16T12:26:17;2.97;;;1.20;;
7398;SDS011;3740;50.700;7.184;2022-09-16T12:29:10;2.70;;;1.00;;
7398;SDS011;3740;50.700;7.184;2022-09-16T12:32:18;2.17;;;0.95;;
7398;SDS011;3740;50.700;7.184;2022-09-16T12:35:21;4.65;;;1.33;;
7398;SDS011;3740;50.700;7.184;2022-09-16T12:38:17;3.75;;;0.93;;
7398;SDS011;3740;50.700;7.184;2022-09-16T12:47:42;3.63;;;1.50;;
7398;SDS011;3740;50.700;7.184;2022-09-16T12:50:49;2.22;;;0.88;;
7398;SDS011;3740;50.700;7.184;2022-09-16T13:00:22;1.87;;;1.27;;
7398;SDS011;3740;50.700;7.184;2022-09-16T13:03:14;2.17;;;1.17;;
7398;SDS011;3740;50.700;7.184;2022-09-16T13:06:05;2.87;;;1.20;;
7398;SDS011;3740;50.700;7.184;2022-09-16T13:12:15;2.33;;;1.27;;
7398;SDS011;3740;50.700;7.184;2022-09-16T13:15:04;1.70;;;0.93;;
7398;SDS011;3740;50.700;7.184;2022-09-16T13:17:51;1.50;;;0.90;;
7398;SDS011;3740;50.700;7.184;2022-09-16T13:20:46;1.67;;;0.80;;
7398;SDS011;3740;50.700;7.184;2022-09-16T13:26:50;2.73;;;0.97;;
7398;SDS011;3740;50.700;7.184;2022-09-16T13:32:26;4.87;;;1.03;;
7398;SDS011;3740;50.700;7.184;2022-09-16T13:35:22;2.67;;;0.90;;
7398;SDS011;3740;50.700;7.184;2022-09-16T13:38:34;2.37;;;1.20;;
7398;SDS011;3740;50.700;7.184;2022-09-16T13:41:39;0.90;;;0.77;;
7398;SDS011;3740;50.700;7.184;2022-09-16T13:47:31;1.47;;;0.70;;
7398;SDS011;3740;50.700;7.184;2022-09-16T13:50:24;1.20;;;0.60;;
7398;SDS011;3740;50.700;7.184;2022-09-16T13:53:23;2.00;;;0.80;;
7398;SDS011;3740;50.700;7.184;2022-09-16T13:56:27;1.80;;;0.60;;
7398;SDS011;3740;50.700;7.184;2022-09-16T14:06:04;1.53;;;0.60;;
7398;SDS011;3740;50.700;7.184;2022-09-16T14:12:10;0.80;;;0.80;;
7398;SDS011;3740;50.700;7.184;2022-09-16T14:15:08;3.07;;;1.00;;
7398;SDS011;3740;50.700;7.184;2022-09-16T14:17:57;1.40;;;0.80;;
7398;SDS011;3740;50.700;7.184;2022-09-16T14:21:02;1.00;;;1.00;;
7398;SDS011;3740;50.700;7.184;2022-09-16T14:23:50;1.20;;;1.10;;
7398;SDS011;3740;50.700;7.184;2022-09-16T14:26:36;2.13;;;0.83;;
7398;SDS011;3740;50.700;7.184;2022-09-16T14:29:22;2.20;;;1.03;;
7398;SDS011;3740;50.700;7.184;2022-09-16T14:32:11;1.07;;;0.97;;
7398;SDS011;3740;50.700;7.184;2022-09-16T14:34:59;1.60;;;0.97;;
7398;SDS011;3740;50.700;7.184;2022-09-16T14:37:49;0.90;;;0.90;;
7398;SDS011;3740;50.700;7.184;2022-09-16T14:40:47;1.17;;;1.00;;
7398;SDS011;3740;50.700;7.184;2022-09-16T14:43:35;1.93;;;1.00;;
7398;SDS011;3740;50.700;7.184;2022-09-16T14:46:22;0.80;;;0.80;;
7398;SDS011;3740;50.700;7.184;2022-09-16T14:49:10;2.03;;;1.13;;
7398;SDS011;3740;50.700;7.184;2022-09-16T14:51:58;1.30;;;1.15;;
7398;SDS011;3740;50.700;7.184;2022-09-16T14:54:46;1.20;;;1.10;;
7398;SDS011;3740;50.700;7.184;2022-09-16T14:57:33;0.93;;;0.80;;
7398;SDS011;3740;50.700;7.184;2022-09-16T15:00:19;0.93;;;0.87;;
7398;SDS011;3740;50.700;7.184;2022-09-16T15:03:10;2.23;;;1.10;;
7398;SDS011;3740;50.700;7.184;2022-09-16T15:05:57;1.27;;;0.70;;
7398;SDS011;3740;50.700;7.184;2022-09-16T15:09:00;1.00;;;0.90;;
7398;SDS011;3740;50.700;7.184;2022-09-16T15:11:57;2.20;;;1.33;;
7398;SDS011;3740;50.700;7.184;2022-09-16T15:14:45;0.80;;;0.80;;
7398;SDS011;3740;50.700;7.184;2022-09-16T15:17:31;2.63;;;1.40;;
7398;SDS011;3740;50.700;7.184;2022-09-16T15:20:18;1.55;;;1.15;;
7398;SDS011;3740;50.700;7.184;2022-09-16T15:23:06;1.65;;;1.10;;
7398;SDS011;3740;50.700;7.184;2022-09-16T15:26:08;1.30;;;0.98;;
7398;SDS011;3740;50.700;7.184;2022-09-16T15:28:57;1.08;;;0.73;;
7398;SDS011;3740;50.700;7.184;2022-09-16T15:31:45;2.25;;;0.95;;
7398;SDS011;3740;50.700;7.184;2022-09-16T15:34:31;2.80;;;0.95;;
7398;SDS011;3740;50.700;7.184;2022-09-16T15:37:33;2.40;;;1.30;;
7398;SDS011;3740;50.700;7.184;2022-09-16T15:43:12;3.53;;;2.80;;
7398;SDS011;3740;50.700;7.184;2022-09-16T15:46:16;1.53;;;1.03;;
7398;SDS011;3740;50.700;7.184;2022-09-16T15:49:06;1.73;;;0.60;;
7398;SDS011;3740;50.700;7.184;2022-09-16T15:51:56;1.87;;;1.10;;
7398;SDS011;3740;50.700;7.184;2022-09-16T15:54:53;2.23;;;1.13;;
7398;SDS011;3740;50.700;7.184;2022-09-16T15:57:46;1.97;;;1.10;;
7398;SDS011;3740;50.700;7.184;2022-09-16T16:00:52;3.10;;;1.40;;
7398;SDS011;3740;50.700;7.184;2022-09-16T16:09:42;1.93;;;1.10;;
7398;SDS011;3740;50.700;7.184;2022-09-16T16:12:28;1.60;;;1.10;;
7398;SDS011;3740;50.700;7.184;2022-09-16T16:15:15;1.30;;;1.00;;
7398;SDS011;3740;50.700;7.184;2022-09-16T16:18:06;1.33;;;1.00;;
7398;SDS011;3740;50.700;7.184;2022-09-16T16:20:54;1.90;;;1.10;;
7398;SDS011;3740;50.700;7.184;2022-09-16T16:23:40;2.20;;;0.93;;
7398;SDS011;3740;50.700;7.184;2022-09-16T16:26:27;2.23;;;1.00;;
7398;SDS011;3740;50.700;7.184;2022-09-16T16:29:12;2.37;;;0.90;;
7398;SDS011;3740;50.700;7.184;2022-09-16T16:34:57;1.70;;;1.00;;
7398;SDS011;3740;50.700;7.184;2022-09-16T16:37:43;1.63;;;1.07;;
7398;SDS011;3740;50.700;7.184;2022-09-16T16:40:29;1.93;;;0.97;;
7398;SDS011;3740;50.700;7.184;2022-09-16T16:43:15;4.40;;;1.10;;
7398;SDS011;3740;50.700;7.184;2022-09-16T16:46:01;1.93;;;0.90;;
7398;SDS011;3740;50.700;7.184;2022-09-16T16:48:47;1.23;;;0.87;;
7398;SDS011;3740;50.700;7.184;2022-09-16T16:51:33;1.90;;;1.10;;
7398;SDS011;3740;50.700;7.184;2022-09-16T16:54:19;1.13;;;0.70;;
7398;SDS011;3740;50.700;7.184;2022-09-16T16:57:06;2.20;;;0.90;;
7398;SDS011;3740;50.700;7.184;2022-09-16T16:59:52;1.67;;;0.80;;
7398;SDS011;3740;50.700;7.184;2022-09-16T17:02:37;0.83;;;0.70;;
7398;SDS011;3740;50.700;7.184;2022-09-16T17:05:23;1.30;;;1.07;;
7398;SDS011;3740;50.700;7.184;2022-09-16T17:08:09;1.27;;;0.90;;
7398;SDS011;3740;50.700;7.184;2022-09-16T17:14:01;1.73;;;1.00;;
7398;SDS011;3740;50.700;7.184;2022-09-16T17:16:49;1.80;;;0.77;;
7398;SDS011;3740;50.700;7.184;2022-09-16T17:19:36;1.43;;;0.90;;
7398;SDS011;3740;50.700;7.184;2022-09-16T17:22:21;1.30;;;0.70;;
7398;SDS011;3740;50.700;7.184;2022-09-16T17:25:07;1.80;;;0.70;;
7398;SDS011;3740;50.700;7.184;2022-09-16T17:27:54;0.73;;;0.60;;
7398;SDS011;3740;50.700;7.184;2022-09-16T17:30:41;1.17;;;0.80;;
7398;SDS011;3740;50.700;7.184;2022-09-16T17:33:27;1.73;;;1.07;;
7398;SDS011;3740;50.700;7.184;2022-09-16T17:36:15;1.97;;;0.80;;
7398;SDS011;3740;50.700;7.184;2022-09-16T17:39:05;2.80;;;1.10;;
7398;SDS011;3740;50.700;7.184;2022-09-16T17:41:52;2.07;;;1.17;;
7398;SDS011;3740;50.700;7.184;2022-09-16T17:44:40;2.07;;;1.00;;
7398;SDS011;3740;50.700;7.184;2022-09-16T17:47:27;2.83;;;1.37;;
7398;SDS011;3740;50.700;7.184;2022-09-16T17:50:14;1.33;;;1.07;;
7398;SDS011;3740;50.700;7.184;2022-09-16T17:53:01;2.53;;;0.90;;
7398;SDS011;3740;50.700;7.184;2022-09-16T17:55:47;1.17;;;0.77;;
7398;SDS011;3740;50.700;7.184;2022-09-16T17:58:33;1.57;;;1.00;;
7398;SDS011;3740;50.700;7.184;2022-09-16T18:01:21;1.57;;;1.10;;
7398;SDS011;3740;50.700;7.184;2022-09-16T18:04:08;2.37;;;1.20;;
7398;SDS011;3740;50.700;7.184;2022-09-16T18:06:55;1.50;;;1.30;;
7398;SDS011;3740;50.700;7.184;2022-09-16T18:09:41;1.30;;;0.97;;
7398;SDS011;3740;50.700;7.184;2022-09-16T18:12:27;2.17;;;1.20;;
7398;SDS011;3740;50.700;7.184;2022-09-16T18:15:12;1.50;;;1.10;;
7398;SDS011;3740;50.700;7.184;2022-09-16T18:17:58;3.60;;;1.70;;
7398;SDS011;3740;50.700;7.184;2022-09-16T18:20:50;3.20;;;1.33;;
7398;SDS011;3740;50.700;7.184;2022-09-16T18:23:37;2.50;;;1.30;;
7398;SDS011;3740;50.700;7.184;2022-09-16T18:26:23;2.90;;;1.43;;
7398;SDS011;3740;50.700;7.184;2022-09-16T18:29:09;1.30;;;1.10;;
7398;SDS011;3740;50.700;7.184;2022-09-16T18:31:56;1.63;;;1.00;;
7398;SDS011;3740;50.700;7.184;2022-09-16T18:34:42;2.87;;;1.37;;
7398;SDS011;3740;50.700;7.184;2022-09-16T18:37:28;1.47;;;1.07;;
7398;SDS011;3740;50.700;7.184;2022-09-16T18:40:14;2.27;;;1.20;;
7398;SDS011;3740;50.700;7.184;2022-09-16T18:43:00;1.77;;;1.50;;
7398;SDS011;3740;50.700;7.184;2022-09-16T18:45:47;1.53;;;1.07;;
7398;SDS011;3740;50.700;7.184;2022-09-16T18:48:33;2.00;;;1.50;;
7398;SDS011;3740;50.700;7.184;2022-09-16T18:51:22;1.57;;;1.30;;
7398;SDS011;3740;50.700;7.184;2022-09-16T18:54:12;2.50;;;1.40;;
7398;SDS011;3740;50.700;7.184;2022-09-16T18:57:00;2.77;;;1.37;;
7398;SDS011;3740;50.700;7.184;2022-09-16T18:59:46;1.70;;;1.40;;
7398;SDS011;3740;50.700;7.184;2022-09-16T19:02:32;2.93;;;1.40;;
7398;SDS011;3740;50.700;7.184;2022-09-16T19:05:18;2.00;;;1.40;;
7398;SDS011;3740;50.700;7.184;2022-09-16T19:08:03;2.03;;;1.30;;
7398;SDS011;3740;50.700;7.184;2022-09-16T19:10:49;3.20;;;1.80;;
7398;SDS011;3740;50.700;7.184;2022-09-16T19:13:36;2.40;;;1.47;;
7398;SDS011;3740;50.700;7.184;2022-09-16T19:16:23;3.00;;;1.70;;
7398;SDS011;3740;50.700;7.184;2022-09-16T19:19:12;3.87;;;1.83;;
7398;SDS011;3740;50.700;7.184;2022-09-16T19:21:59;2.43;;;1.40;;
7398;SDS011;3740;50.700;7.184;2022-09-16T19:24:49;2.00;;;1.23;;
7398;SDS011;3740;50.700;7.184;2022-09-16T19:27:38;2.63;;;1.50;;
7398;SDS011;3740;50.700;7.184;2022-09-16T19:30:24;2.33;;;1.47;;
7398;SDS011;3740;50.700;7.184;2022-09-16T19:33:10;2.43;;;1.40;;
7398;SDS011;3740;50.700;7.184;2022-09-16T19:35:56;4.10;;;1.73;;
7398;SDS011;3740;50.700;7.184;2022-09-16T19:38:42;2.23;;;1.23;;
7398;SDS011;3740;50.700;7.184;2022-09-16T19:41:29;1.87;;;1.70;;
7398;SDS011;3740;50.700;7.184;2022-09-16T19:44:16;1.80;;;1.40;;
7398;SDS011;3740;50.700;7.184;2022-09-16T19:47:03;2.53;;;1.60;;
7398;SDS011;3740;50.700;7.184;2022-09-16T19:49:49;2.47;;;1.50;;
7398;SDS011;3740;50.700;7.184;2022-09-16T19:52:34;3.03;;;1.77;;
7398;SDS011;3740;50.700;7.184;2022-09-16T19:55:22;3.20;;;1.40;;
7398;SDS011;3740;50.700;7.184;2022-09-16T19:58:08;2.33;;;1.63;;
7398;SDS011;3740;50.700;7.184;2022-09-16T20:00:56;1.77;;;1.43;;
7398;SDS011;3740;50.700;7.184;2022-09-16T20:03:43;3.70;;;1.80;;